sensor_id;sensor_type;location;lat;lon;timestamp;pressure;altitude;pressure_sealevel;temperature;humidity
69980;BME280;57318;56.232;43.944;2023-03-18T00:00:59;100530.03;;;-4.38;74.83
69980;BME280;57318;56.232;43.944;2023-03-18T00:03:32;100530.03;;;-4.41;75.19
69980;BME280;57318;56.232;43.944;2023-03-18T00:06:18;100524.84;;;-4.44;74.83
69980;BME280;57318;56.232;43.944;2023-03-18T00:08:46;100529.16;;;-4.41;75.06
69980;BME280;57318;56.232;43.944;2023-03-18T00:11:14;100536.94;;;-4.44;75.09
69980;BME280;57318;56.232;43.944;2023-03-18T00:13:40;100531.75;;;-4.46;75.40
69980;BME280;57318;56.232;43.944;2023-03-18T00:16:08;100537.81;;;-4.47;75.03
69980;BME280;57318;56.232;43.944;2023-03-18T00:18:36;100531.78;;;-4.49;74.93
69980;BME280;57318;56.232;43.944;2023-03-18T00:21:03;100543.88;;;-4.51;74.99
69980;BME280;57318;56.232;43.944;2023-03-18T00:23:31;100550.78;;;-4.53;75.16
69980;BME280;57318;56.232;43.944;2023-03-18T00:25:57;100557.72;;;-4.52;75.05
69980;BME280;57318;56.232;43.944;2023-03-18T00:28:25;100555.97;;;-4.53;75.14
69980;BME280;57318;56.232;43.944;2023-03-18T00:30:51;100553.38;;;-4.58;75.18
69980;BME280;57318;56.232;43.944;2023-03-18T00:33:18;100560.31;;;-4.58;75.15
69980;BME280;57318;56.232;43.944;2023-03-18T00:35:45;100558.56;;;-4.59;75.34
69980;BME280;57318;56.232;43.944;2023-03-18T00:38:11;100569.81;;;-4.63;74.90
69980;BME280;57318;56.232;43.944;2023-03-18T00:40:46;100573.28;;;-4.64;75.18
69980;BME280;57318;56.232;43.944;2023-03-18T00:43:22;100575.84;;;-4.66;75.11
69980;BME280;57318;56.232;43.944;2023-03-18T00:45:55;100582.78;;;-4.66;75.41
69980;BME280;57318;56.232;43.944;2023-03-18T00:48:22;100582.78;;;-4.66;75.52
69980;BME280;57318;56.232;43.944;2023-03-18T00:50:48;100589.69;;;-4.67;75.38
69980;BME280;57318;56.232;43.944;2023-03-18T00:53:15;100593.16;;;-4.68;75.27
69980;BME280;57318;56.232;43.944;2023-03-18T00:55:42;100584.50;;;-4.68;75.16
69980;BME280;57318;56.232;43.944;2023-03-18T00:58:09;100582.78;;;-4.71;75.51
69980;BME280;57318;56.232;43.944;2023-03-18T01:00:37;100600.94;;;-4.71;75.18
69980;BME280;57318;56.232;43.944;2023-03-18T01:03:03;100591.41;;;-4.74;75.53
69980;BME280;57318;56.232;43.944;2023-03-18T01:05:31;100592.28;;;-4.75;75.40
69980;BME280;57318;56.232;43.944;2023-03-18T01:07:57;100590.56;;;-4.74;75.15
69980;BME280;57318;56.232;43.944;2023-03-18T01:10:23;100596.59;;;-4.78;75.59
69980;BME280;57318;56.232;43.944;2023-03-18T01:12:49;100605.25;;;-4.79;75.34
69980;BME280;57318;56.232;43.944;2023-03-18T01:15:17;100607.84;;;-4.82;75.40
69980;BME280;57318;56.232;43.944;2023-03-18T01:17:44;100612.13;;;-4.86;75.49
69980;BME280;57318;56.232;43.944;2023-03-18T01:20:12;100612.13;;;-4.87;75.66
69980;BME280;57318;56.232;43.944;2023-03-18T01:22:38;100613.88;;;-4.90;75.57
69980;BME280;57318;56.232;43.944;2023-03-18T01:25:07;100608.66;;;-4.93;75.74
69980;BME280;57318;56.232;43.944;2023-03-18T01:27:34;100616.44;;;-4.96;75.81
69980;BME280;57318;56.232;43.944;2023-03-18T01:30:00;100629.38;;;-4.99;75.98
69980;BME280;57318;56.232;43.944;2023-03-18T01:32:26;100637.16;;;-5.00;76.12
69980;BME280;57318;56.232;43.944;2023-03-18T01:34:53;100633.72;;;-5.02;75.98
69980;BME280;57318;56.232;43.944;2023-03-18T01:37:18;100642.31;;;-5.07;75.77
69980;BME280;57318;56.232;43.944;2023-03-18T01:39:44;100648.41;;;-5.06;76.06
69980;BME280;57318;56.232;43.944;2023-03-18T01:42:11;100651.81;;;-5.10;76.05
69980;BME280;57318;56.232;43.944;2023-03-18T01:44:37;100645.78;;;-5.11;76.24
69980;BME280;57318;56.232;43.944;2023-03-18T01:47:02;100654.41;;;-5.15;76.32
69980;BME280;57318;56.232;43.944;2023-03-18T01:49:40;100662.19;;;-5.13;76.30
69980;BME280;57318;56.232;43.944;2023-03-18T01:52:14;100664.75;;;-5.15;76.37
69980;BME280;57318;56.232;43.944;2023-03-18T01:54:45;100669.09;;;-5.17;76.53
69980;BME280;57318;56.232;43.944;2023-03-18T01:57:14;100671.66;;;-5.20;76.32
69980;BME280;57318;56.232;43.944;2023-03-18T01:59:43;100673.38;;;-5.20;76.59
69980;BME280;57318;56.232;43.944;2023-03-18T02:02:13;100680.28;;;-5.21;76.73
69980;BME280;57318;56.232;43.944;2023-03-18T02:04:45;100685.44;;;-5.24;76.55
69980;BME280;57318;56.232;43.944;2023-03-18T02:07:14;100692.38;;;-5.26;76.73
69980;BME280;57318;56.232;43.944;2023-03-18T02:09:41;100687.16;;;-5.29;76.79
69980;BME280;57318;56.232;43.944;2023-03-18T02:12:07;100700.97;;;-5.30;76.70
69980;BME280;57318;56.232;43.944;2023-03-18T02:14:33;100694.06;;;-5.31;76.98
69980;BME280;57318;56.232;43.944;2023-03-18T02:17:08;100709.59;;;-5.33;77.01
69980;BME280;57318;56.232;43.944;2023-03-18T02:22:28;100713.88;;;-5.39;76.99
69980;BME280;57318;56.232;43.944;2023-03-18T02:25:07;100717.34;;;-5.40;77.28
69980;BME280;57318;56.232;43.944;2023-03-18T02:27:41;100725.94;;;-5.43;77.21
69980;BME280;57318;56.232;43.944;2023-03-18T02:30:15;100728.53;;;-5.45;77.22
69980;BME280;57318;56.232;43.944;2023-03-18T02:32:44;100729.38;;;-5.47;77.22
69980;BME280;57318;56.232;43.944;2023-03-18T02:35:12;100733.69;;;-5.48;77.30
69980;BME280;57318;56.232;43.944;2023-03-18T02:37:38;100738.84;;;-5.49;77.21
69980;BME280;57318;56.232;43.944;2023-03-18T02:42:44;100743.97;;;-5.57;77.47
69980;BME280;57318;56.232;43.944;2023-03-18T02:48:02;100756.03;;;-5.62;77.64
69980;BME280;57318;56.232;43.944;2023-03-18T02:50:29;100756.03;;;-5.64;77.54
69980;BME280;57318;56.232;43.944;2023-03-18T02:53:00;100762.06;;;-5.65;77.66
69980;BME280;57318;56.232;43.944;2023-03-18T02:55:26;100761.19;;;-5.67;77.64
69980;BME280;57318;56.232;43.944;2023-03-18T02:57:52;100759.44;;;-5.69;77.56
69980;BME280;57318;56.232;43.944;2023-03-18T03:00:18;100762.88;;;-5.73;78.04
69980;BME280;57318;56.232;43.944;2023-03-18T03:02:43;100767.16;;;-5.74;77.85
69980;BME280;57318;56.232;43.944;2023-03-18T03:05:09;100766.28;;;-5.74;77.95
69980;BME280;57318;56.232;43.944;2023-03-18T03:07:35;100771.50;;;-5.73;77.89
69980;BME280;57318;56.232;43.944;2023-03-18T03:10:03;100766.28;;;-5.74;77.88
69980;BME280;57318;56.232;43.944;2023-03-18T03:12:30;100779.25;;;-5.74;77.94
69980;BME280;57318;56.232;43.944;2023-03-18T03:14:55;100781.00;;;-5.73;77.63
69980;BME280;57318;56.232;43.944;2023-03-18T03:17:21;100781.84;;;-5.74;77.66
69980;BME280;57318;56.232;43.944;2023-03-18T03:19:47;100783.56;;;-5.75;77.78
69980;BME280;57318;56.232;43.944;2023-03-18T03:22:14;100781.84;;;-5.71;77.44
69980;BME280;57318;56.232;43.944;2023-03-18T03:24:42;100784.47;;;-5.68;77.54
69980;BME280;57318;56.232;43.944;2023-03-18T03:27:08;100797.44;;;-5.65;77.38
69980;BME280;57318;56.232;43.944;2023-03-18T03:29:33;100793.13;;;-5.65;77.27
69980;BME280;57318;56.232;43.944;2023-03-18T03:32:00;100806.09;;;-5.60;77.28
69980;BME280;57318;56.232;43.944;2023-03-18T03:34:26;100805.25;;;-5.59;77.09
69980;BME280;57318;56.232;43.944;2023-03-18T03:36:52;100804.44;;;-5.56;76.82
69980;BME280;57318;56.232;43.944;2023-03-18T03:39:17;100801.84;;;-5.53;76.85
69980;BME280;57318;56.232;43.944;2023-03-18T03:41:43;100816.56;;;-5.48;76.70
69980;BME280;57318;56.232;43.944;2023-03-18T03:44:09;100816.63;;;-5.41;76.53
69980;BME280;57318;56.232;43.944;2023-03-18T03:46:35;100819.22;;;-5.38;76.45
69980;BME280;57318;56.232;43.944;2023-03-18T03:49:01;100829.63;;;-5.32;76.32
69980;BME280;57318;56.232;43.944;2023-03-18T03:51:27;100827.91;;;-5.30;76.27
69980;BME280;57318;56.232;43.944;2023-03-18T03:53:53;100827.09;;;-5.24;76.10
69980;BME280;57318;56.232;43.944;2023-03-18T03:56:19;100840.09;;;-5.20;75.73
69980;BME280;57318;56.232;43.944;2023-03-18T03:58:45;100845.34;;;-5.12;75.67
69980;BME280;57318;56.232;43.944;2023-03-18T04:01:11;100841.06;;;-5.05;75.41
69980;BME280;57318;56.232;43.944;2023-03-18T04:03:36;100845.41;;;-5.00;75.21
69980;BME280;57318;56.232;43.944;2023-03-18T04:06:02;100843.72;;;-4.93;75.03
69980;BME280;57318;56.232;43.944;2023-03-18T04:08:28;100837.69;;;-4.87;74.52
69980;BME280;57318;56.232;43.944;2023-03-18T04:10:54;100846.41;;;-4.81;74.61
69980;BME280;57318;56.232;43.944;2023-03-18T04:13:19;100855.91;;;-4.74;74.14
69980;BME280;57318;56.232;43.944;2023-03-18T04:15:45;100853.34;;;-4.67;73.96
69980;BME280;57318;56.232;43.944;2023-03-18T04:18:12;100865.50;;;-4.60;73.88
69980;BME280;57318;56.232;43.944;2023-03-18T04:20:39;100868.16;;;-4.51;73.54
69980;BME280;57318;56.232;43.944;2023-03-18T04:23:05;100869.03;;;-4.43;73.60
69980;BME280;57318;56.232;43.944;2023-03-18T04:25:31;100873.38;;;-4.36;73.28
69980;BME280;57318;56.232;43.944;2023-03-18T04:27:57;100877.75;;;-4.28;73.00
69980;BME280;57318;56.232;43.944;2023-03-18T04:30:23;100886.44;;;-4.20;72.40
69980;BME280;57318;56.232;43.944;2023-03-18T04:32:51;100891.66;;;-4.14;71.93
69980;BME280;57318;56.232;43.944;2023-03-18T04:35:17;100889.94;;;-4.06;71.73
69980;BME280;57318;56.232;43.944;2023-03-18T04:37:42;100889.13;;;-3.94;71.30
69980;BME280;57318;56.232;43.944;2023-03-18T04:40:10;100889.13;;;-3.89;71.20
69980;BME280;57318;56.232;43.944;2023-03-18T04:42:37;100896.94;;;-3.80;70.29
69980;BME280;57318;56.232;43.944;2023-03-18T04:45:04;100901.28;;;-3.71;69.82
69980;BME280;57318;56.232;43.944;2023-03-18T04:47:30;100899.59;;;-3.61;69.79
69980;BME280;57318;56.232;43.944;2023-03-18T04:49:57;100901.31;;;-3.53;69.27
69980;BME280;57318;56.232;43.944;2023-03-18T04:52:23;100896.97;;;-3.46;68.93
69980;BME280;57318;56.232;43.944;2023-03-18T04:54:49;100903.06;;;-3.38;68.25
69980;BME280;57318;56.232;43.944;2023-03-18T04:57:15;100903.94;;;-3.27;68.29
69980;BME280;57318;56.232;43.944;2023-03-18T04:59:42;100905.66;;;-3.21;67.86
69980;BME280;57318;56.232;43.944;2023-03-18T05:02:07;100907.41;;;-3.09;67.42
69980;BME280;57318;56.232;43.944;2023-03-18T05:04:33;100919.50;;;-2.99;66.68
69980;BME280;57318;56.232;43.944;2023-03-18T05:06:59;100916.91;;;-2.91;66.38
69980;BME280;57318;56.232;43.944;2023-03-18T05:09:25;100924.72;;;-2.83;65.95
69980;BME280;57318;56.232;43.944;2023-03-18T05:11:52;100924.69;;;-2.74;65.63
69980;BME280;57318;56.232;43.944;2023-03-18T05:14:17;100922.09;;;-2.68;65.23
69980;BME280;57318;56.232;43.944;2023-03-18T05:16:43;100928.13;;;-2.58;64.82
69980;BME280;57318;56.232;43.944;2023-03-18T05:19:09;100926.41;;;-2.55;64.41
69980;BME280;57318;56.232;43.944;2023-03-18T05:21:35;100939.38;;;-2.44;64.17
69980;BME280;57318;56.232;43.944;2023-03-18T05:24:01;100933.28;;;-2.35;63.48
69980;BME280;57318;56.232;43.944;2023-03-18T05:26:27;100935.00;;;-2.25;63.45
69980;BME280;57318;56.232;43.944;2023-03-18T05:28:53;100934.94;;;-2.15;62.80
69980;BME280;57318;56.232;43.944;2023-03-18T05:31:19;100938.41;;;-2.06;62.71
69980;BME280;57318;56.232;43.944;2023-03-18T05:33:45;100934.88;;;-1.98;62.23
69980;BME280;57318;56.232;43.944;2023-03-18T05:36:12;100935.72;;;-1.93;61.25
69980;BME280;57318;56.232;43.944;2023-03-18T05:38:38;100951.31;;;-1.83;61.69
69980;BME280;57318;56.232;43.944;2023-03-18T05:41:03;100944.31;;;-1.71;61.03
69980;BME280;57318;56.232;43.944;2023-03-18T05:43:29;100949.44;;;-1.62;60.33
69980;BME280;57318;56.232;43.944;2023-03-18T05:45:56;100948.56;;;-1.55;59.76
69980;BME280;57318;56.232;43.944;2023-03-18T05:48:22;100948.53;;;-1.49;59.66
69980;BME280;57318;56.232;43.944;2023-03-18T05:50:48;100950.19;;;-1.38;59.75
69980;BME280;57318;56.232;43.944;2023-03-18T05:53:13;100951.88;;;-1.30;59.93
69980;BME280;57318;56.232;43.944;2023-03-18T05:55:41;100959.63;;;-1.22;59.43
69980;BME280;57318;56.232;43.944;2023-03-18T05:58:07;100951.75;;;-1.13;59.89
69980;BME280;57318;56.232;43.944;2023-03-18T06:00:33;100958.63;;;-1.02;59.03
69980;BME280;57318;56.232;43.944;2023-03-18T06:02:59;100964.63;;;-0.89;58.08
69980;BME280;57318;56.232;43.944;2023-03-18T06:05:26;100969.53;;;0.22;56.56
69980;BME280;57318;56.232;43.944;2023-03-18T06:07:52;100966.53;;;2.04;51.87
69980;BME280;57318;56.232;43.944;2023-03-18T06:10:19;100969.84;;;4.25;47.50
69980;BME280;57318;56.232;43.944;2023-03-18T06:12:45;100972.31;;;6.41;42.74
69980;BME280;57318;56.232;43.944;2023-03-18T06:15:11;100986.69;;;8.25;39.08
69980;BME280;57318;56.232;43.944;2023-03-18T06:17:38;100984.16;;;10.03;36.01
69980;BME280;57318;56.232;43.944;2023-03-18T06:20:05;100991.19;;;11.63;33.74
69980;BME280;57318;56.232;43.944;2023-03-18T06:22:33;100990.94;;;13.23;31.18
69980;BME280;57318;56.232;43.944;2023-03-18T06:25:00;100985.31;;;14.06;28.30
69980;BME280;57318;56.232;43.944;2023-03-18T06:27:26;100988.13;;;15.05;27.06
69980;BME280;57318;56.232;43.944;2023-03-18T06:29:52;100989.41;;;15.83;26.06
69980;BME280;57318;56.232;43.944;2023-03-18T06:32:18;100994.41;;;16.78;24.15
69980;BME280;57318;56.232;43.944;2023-03-18T06:34:44;100991.66;;;17.44;23.80
69980;BME280;57318;56.232;43.944;2023-03-18T06:37:10;101000.41;;;17.58;22.73
69980;BME280;57318;56.232;43.944;2023-03-18T06:39:36;100999.13;;;18.25;22.64
69980;BME280;57318;56.232;43.944;2023-03-18T06:42:02;100993.94;;;18.84;21.62
69980;BME280;57318;56.232;43.944;2023-03-18T06:44:29;101003.06;;;19.41;21.16
69980;BME280;57318;56.232;43.944;2023-03-18T06:46:55;101002.91;;;20.01;19.99
69980;BME280;57318;56.232;43.944;2023-03-18T06:49:21;100999.31;;;20.48;19.37
69980;BME280;57318;56.232;43.944;2023-03-18T06:51:48;101009.59;;;21.00;18.02
69980;BME280;57318;56.232;43.944;2023-03-18T06:54:14;101012.31;;;20.72;18.58
69980;BME280;57318;56.232;43.944;2023-03-18T06:56:41;101007.41;;;21.04;18.26
69980;BME280;57318;56.232;43.944;2023-03-18T06:59:08;101009.88;;;21.15;17.63
69980;BME280;57318;56.232;43.944;2023-03-18T07:01:34;101013.97;;;21.37;17.35
69980;BME280;57318;56.232;43.944;2023-03-18T07:04:02;100999.63;;;21.55;17.24
69980;BME280;57318;56.232;43.944;2023-03-18T07:06:28;101015.00;;;21.54;16.53
69980;BME280;57318;56.232;43.944;2023-03-18T07:08:57;101004.50;;;21.95;17.07
69980;BME280;57318;56.232;43.944;2023-03-18T07:11:23;101013.25;;;22.15;16.67
69980;BME280;57318;56.232;43.944;2023-03-18T07:13:49;101010.22;;;21.92;15.45
69980;BME280;57318;56.232;43.944;2023-03-18T07:16:15;101016.84;;;22.24;16.33
69980;BME280;57318;56.232;43.944;2023-03-18T07:18:41;101023.59;;;22.20;16.49
69980;BME280;57318;56.232;43.944;2023-03-18T07:21:07;101017.22;;;22.29;16.38
69980;BME280;57318;56.232;43.944;2023-03-18T07:23:34;101015.97;;;22.42;16.06
69980;BME280;57318;56.232;43.944;2023-03-18T07:25:59;101020.41;;;22.51;15.99
69980;BME280;57318;56.232;43.944;2023-03-18T07:28:25;101012.22;;;22.77;15.90
69980;BME280;57318;56.232;43.944;2023-03-18T07:30:51;101016.19;;;23.07;15.48
69980;BME280;57318;56.232;43.944;2023-03-18T07:33:17;101026.47;;;23.55;15.05
69980;BME280;57318;56.232;43.944;2023-03-18T07:35:42;101028.50;;;23.69;14.63
69980;BME280;57318;56.232;43.944;2023-03-18T07:38:08;101023.56;;;23.56;14.71
69980;BME280;57318;56.232;43.944;2023-03-18T07:40:35;101026.44;;;23.88;14.36
69980;BME280;57318;56.232;43.944;2023-03-18T07:43:01;101021.88;;;23.96;14.00
69980;BME280;57318;56.232;43.944;2023-03-18T07:45:26;101023.06;;;24.02;13.80
69980;BME280;57318;56.232;43.944;2023-03-18T07:47:53;101026.75;;;24.18;13.49
69980;BME280;57318;56.232;43.944;2023-03-18T07:50:19;101017.09;;;24.15;13.62
69980;BME280;57318;56.232;43.944;2023-03-18T07:52:45;101018.63;;;23.76;13.67
69980;BME280;57318;56.232;43.944;2023-03-18T07:55:11;101016.63;;;23.95;13.64
69980;BME280;57318;56.232;43.944;2023-03-18T07:57:38;101021.34;;;24.01;13.57
69980;BME280;57318;56.232;43.944;2023-03-18T08:00:05;101024.28;;;24.47;13.22
69980;BME280;57318;56.232;43.944;2023-03-18T08:02:31;101025.78;;;24.98;13.04
69980;BME280;57318;56.232;43.944;2023-03-18T08:04:58;101020.78;;;25.10;12.68
69980;BME280;57318;56.232;43.944;2023-03-18T08:07:23;101021.22;;;25.21;12.32
69980;BME280;57318;56.232;43.944;2023-03-18T08:09:49;101034.63;;;25.31;12.60
69980;BME280;57318;56.232;43.944;2023-03-18T08:12:15;101029.47;;;25.36;12.81
69980;BME280;57318;56.232;43.944;2023-03-18T08:14:41;101032.25;;;25.51;11.89
69980;BME280;57318;56.232;43.944;2023-03-18T08:17:08;101026.88;;;25.43;12.00
69980;BME280;57318;56.232;43.944;2023-03-18T08:19:34;101021.78;;;25.63;11.91
69980;BME280;57318;56.232;43.944;2023-03-18T08:22:00;101027.28;;;26.16;11.75
69980;BME280;57318;56.232;43.944;2023-03-18T08:24:26;101020.41;;;26.35;11.82
69980;BME280;57318;56.232;43.944;2023-03-18T08:26:52;101024.25;;;26.56;11.37
69980;BME280;57318;56.232;43.944;2023-03-18T08:29:18;101021.84;;;26.97;11.21
69980;BME280;57318;56.232;43.944;2023-03-18T08:31:43;101016.50;;;26.89;11.19
69980;BME280;57318;56.232;43.944;2023-03-18T08:34:09;101012.22;;;26.50;11.18
69980;BME280;57318;56.232;43.944;2023-03-18T08:36:35;101028.31;;;26.60;10.90
69980;BME280;57318;56.232;43.944;2023-03-18T08:39:02;101028.41;;;26.67;11.21
69980;BME280;57318;56.232;43.944;2023-03-18T08:41:30;101018.72;;;26.79;11.59
69980;BME280;57318;56.232;43.944;2023-03-18T08:43:56;101018.81;;;27.07;11.06
69980;BME280;57318;56.232;43.944;2023-03-18T08:46:23;101024.84;;;27.24;11.00
69980;BME280;57318;56.232;43.944;2023-03-18T08:48:49;101014.50;;;27.34;10.43
69980;BME280;57318;56.232;43.944;2023-03-18T08:51:15;101012.13;;;26.88;10.47
69980;BME280;57318;56.232;43.944;2023-03-18T08:53:41;101019.97;;;26.98;10.62
69980;BME280;57318;56.232;43.944;2023-03-18T08:56:07;101022.41;;;27.29;10.37
69980;BME280;57318;56.232;43.944;2023-03-18T08:58:33;101017.78;;;27.73;10.00
69980;BME280;57318;56.232;43.944;2023-03-18T09:01:01;101018.41;;;27.47;10.56
69980;BME280;57318;56.232;43.944;2023-03-18T09:03:30;101013.44;;;27.57;10.29
69980;BME280;57318;56.232;43.944;2023-03-18T09:05:55;101015.66;;;27.25;10.41
69980;BME280;57318;56.232;43.944;2023-03-18T09:08:22;101008.84;;;27.36;10.51
69980;BME280;57318;56.232;43.944;2023-03-18T09:10:52;101008.78;;;27.51;10.24
69980;BME280;57318;56.232;43.944;2023-03-18T09:13:18;101004.88;;;27.60;10.26
69980;BME280;57318;56.232;43.944;2023-03-18T09:15:44;101005.13;;;27.65;10.55
69980;BME280;57318;56.232;43.944;2023-03-18T09:18:10;101003.44;;;27.93;10.30
69980;BME280;57318;56.232;43.944;2023-03-18T09:20:35;101004.41;;;28.06;10.18
69980;BME280;57318;56.232;43.944;2023-03-18T09:23:01;101006.13;;;27.86;9.81
69980;BME280;57318;56.232;43.944;2023-03-18T09:25:28;101005.16;;;27.94;10.09
69980;BME280;57318;56.232;43.944;2023-03-18T09:27:54;101003.53;;;27.99;9.88
69980;BME280;57318;56.232;43.944;2023-03-18T09:30:19;101004.78;;;27.75;10.20
69980;BME280;57318;56.232;43.944;2023-03-18T09:32:45;101008.19;;;27.84;9.81
69980;BME280;57318;56.232;43.944;2023-03-18T09:35:11;101011.53;;;27.79;9.85
69980;BME280;57318;56.232;43.944;2023-03-18T09:37:37;101009.69;;;28.08;9.68
69980;BME280;57318;56.232;43.944;2023-03-18T09:40:04;101004.06;;;28.16;9.50
69980;BME280;57318;56.232;43.944;2023-03-18T09:45:28;101005.78;;;28.24;9.16
69980;BME280;57318;56.232;43.944;2023-03-18T09:51:03;101002.66;;;28.27;9.28
69980;BME280;57318;56.232;43.944;2023-03-18T09:56:02;100994.22;;;28.22;9.66
69980;BME280;57318;56.232;43.944;2023-03-18T10:01:07;100986.50;;;27.97;9.56
69980;BME280;57318;56.232;43.944;2023-03-18T10:03:38;100990.91;;;27.98;9.66
69980;BME280;57318;56.232;43.944;2023-03-18T10:17:29;100985.06;;;27.51;8.98
69980;BME280;57318;56.232;43.944;2023-03-18T10:19:29;100992.69;;;27.19;9.67
69980;BME280;57318;56.232;43.944;2023-03-18T10:25:23;100995.94;;;28.01;8.81
69980;BME280;57318;56.232;43.944;2023-03-18T10:33:40;100995.81;;;28.10;8.82
69980;BME280;57318;56.232;43.944;2023-03-18T10:36:18;100996.94;;;27.94;8.72
69980;BME280;57318;56.232;43.944;2023-03-18T10:38:49;100996.03;;;27.86;9.12
69980;BME280;57318;56.232;43.944;2023-03-18T10:43:46;100995.41;;;27.84;9.04
69980;BME280;57318;56.232;43.944;2023-03-18T10:46:15;100996.81;;;28.02;8.91
69980;BME280;57318;56.232;43.944;2023-03-18T10:48:45;100997.94;;;27.86;9.12
69980;BME280;57318;56.232;43.944;2023-03-18T10:56:35;100991.75;;;28.34;8.15
69980;BME280;57318;56.232;43.944;2023-03-18T10:59:08;100994.94;;;27.81;8.82
69980;BME280;57318;56.232;43.944;2023-03-18T11:01:37;100988.75;;;27.65;9.14
69980;BME280;57318;56.232;43.944;2023-03-18T11:04:04;100994.66;;;27.04;9.15
69980;BME280;57318;56.232;43.944;2023-03-18T11:06:39;100989.72;;;26.63;9.27
69980;BME280;57318;56.232;43.944;2023-03-18T11:09:10;100994.94;;;26.73;9.62
69980;BME280;57318;56.232;43.944;2023-03-18T11:11:41;100992.84;;;26.75;9.29
69980;BME280;57318;56.232;43.944;2023-03-18T11:14:13;100986.56;;;26.74;9.25
69980;BME280;57318;56.232;43.944;2023-03-18T11:17:03;100991.00;;;26.97;9.15
69980;BME280;57318;56.232;43.944;2023-03-18T11:19:45;100994.56;;;26.46;9.31
69980;BME280;57318;56.232;43.944;2023-03-18T11:22:20;100996.06;;;26.48;9.57
69980;BME280;57318;56.232;43.944;2023-03-18T11:25:14;101001.41;;;26.42;9.18
69980;BME280;57318;56.232;43.944;2023-03-18T11:27:46;101001.78;;;26.69;8.85
69980;BME280;57318;56.232;43.944;2023-03-18T11:30:21;100991.91;;;26.38;9.05
69980;BME280;57318;56.232;43.944;2023-03-18T11:32:57;100988.81;;;26.11;9.81
69980;BME280;57318;56.232;43.944;2023-03-18T11:35:38;100992.78;;;26.08;9.71
69980;BME280;57318;56.232;43.944;2023-03-18T11:38:05;100992.59;;;26.10;9.57
69980;BME280;57318;56.232;43.944;2023-03-18T11:40:31;100989.31;;;26.15;9.26
69980;BME280;57318;56.232;43.944;2023-03-18T11:43:02;100990.63;;;26.04;9.67
69980;BME280;57318;56.232;43.944;2023-03-18T11:45:42;100983.31;;;25.81;9.56
69980;BME280;57318;56.232;43.944;2023-03-18T11:48:18;100974.38;;;26.10;9.32
69980;BME280;57318;56.232;43.944;2023-03-18T11:51:02;100983.47;;;26.33;9.22
69980;BME280;57318;56.232;43.944;2023-03-18T12:02:17;100971.88;;;25.33;9.11
69980;BME280;57318;56.232;43.944;2023-03-18T12:08:17;100979.31;;;24.84;9.43
69980;BME280;57318;56.232;43.944;2023-03-18T12:11:15;100968.25;;;24.86;9.48
69980;BME280;57318;56.232;43.944;2023-03-18T12:27:48;100951.84;;;23.34;10.30
69980;BME280;57318;56.232;43.944;2023-03-18T12:41:12;100942.31;;;22.97;10.74
69980;BME280;57318;56.232;43.944;2023-03-18T12:46:26;100944.19;;;22.38;10.69
69980;BME280;57318;56.232;43.944;2023-03-18T12:49:07;100941.75;;;22.26;10.87
69980;BME280;57318;56.232;43.944;2023-03-18T12:54:17;100930.78;;;21.75;10.96
69980;BME280;57318;56.232;43.944;2023-03-18T12:56:44;100934.09;;;21.61;10.96
69980;BME280;57318;56.232;43.944;2023-03-18T12:59:23;100936.22;;;21.13;11.69
69980;BME280;57318;56.232;43.944;2023-03-18T13:04:26;100935.25;;;20.68;12.28
69980;BME280;57318;56.232;43.944;2023-03-18T13:09:49;100931.19;;;20.54;12.64
69980;BME280;57318;56.232;43.944;2023-03-18T13:12:23;100927.72;;;20.44;11.47
69980;BME280;57318;56.232;43.944;2023-03-18T13:17:46;100921.38;;;19.98;13.04
69980;BME280;57318;56.232;43.944;2023-03-18T13:20:26;100923.00;;;19.71;12.99
69980;BME280;57318;56.232;43.944;2023-03-18T13:28:52;100925.06;;;18.91;12.90
69980;BME280;57318;56.232;43.944;2023-03-18T13:42:26;100924.78;;;17.51;14.08
69980;BME280;57318;56.232;43.944;2023-03-18T13:47:21;100923.06;;;17.08;14.83
69980;BME280;57318;56.232;43.944;2023-03-18T13:49:48;100917.91;;;17.16;15.09
69980;BME280;57318;56.232;43.944;2023-03-18T13:52:34;100912.38;;;16.97;15.18
69980;BME280;57318;56.232;43.944;2023-03-18T13:58:28;100905.31;;;16.40;15.63
69980;BME280;57318;56.232;43.944;2023-03-18T14:03:29;100915.34;;;15.93;15.82
69980;BME280;57318;56.232;43.944;2023-03-18T14:13:56;100909.53;;;14.82;16.77
69980;BME280;57318;56.232;43.944;2023-03-18T14:21:51;100911.47;;;13.93;18.29
69980;BME280;57318;56.232;43.944;2023-03-18T14:29:21;100910.03;;;13.23;18.76
69980;BME280;57318;56.232;43.944;2023-03-18T14:31:54;100905.03;;;12.91;18.77
69980;BME280;57318;56.232;43.944;2023-03-18T14:34:28;100902.22;;;12.52;19.94
69980;BME280;57318;56.232;43.944;2023-03-18T14:41:56;100913.09;;;11.48;20.83
69980;BME280;57318;56.232;43.944;2023-03-18T14:47:22;100914.44;;;10.64;21.42
69980;BME280;57318;56.232;43.944;2023-03-18T14:50:04;100903.00;;;10.15;22.37
69980;BME280;57318;56.232;43.944;2023-03-18T14:52:42;100903.59;;;9.70;22.38
69980;BME280;57318;56.232;43.944;2023-03-18T14:55:22;100907.47;;;8.95;23.78
69980;BME280;57318;56.232;43.944;2023-03-18T14:57:50;100906.16;;;8.29;24.23
69980;BME280;57318;56.232;43.944;2023-03-18T15:00:18;100912.63;;;7.65;25.22
69980;BME280;57318;56.232;43.944;2023-03-18T15:02:56;100906.81;;;6.93;25.61
69980;BME280;57318;56.232;43.944;2023-03-18T15:05:24;100913.72;;;6.31;26.66
69980;BME280;57318;56.232;43.944;2023-03-18T15:07:50;100917.06;;;5.64;27.31
69980;BME280;57318;56.232;43.944;2023-03-18T15:10:24;100912.84;;;5.07;28.24
69980;BME280;57318;56.232;43.944;2023-03-18T15:13:02;100917.78;;;4.63;29.04
69980;BME280;57318;56.232;43.944;2023-03-18T15:15:35;100922.34;;;4.30;29.61
69980;BME280;57318;56.232;43.944;2023-03-18T15:21:45;100924.47;;;3.56;31.02